Pagina principale
METAR-TAF:

METAR-TAF

Aeroporti :

Salerno, Italia

Aeroporto di Salerno-Costa d'Amalfi

latitudine: 40-37N, longitudine: 014-55E, altezza: 40 m

Osservazione

Il bollettino è stato emesso 13 ore e 55 minuti fa, alle 16:50 UTC
Vento 11 kt da sud/sud-ovest
Temperature 26°C
Umidità 58%
Pressione 1006 hPa
Visibilità 10 km o più
Poco nuvoloso ad un'altezza di 3000 ft, Cumulo congesto.
Nubi sparse ad un'altezza di 4000 ft

METAR: LIRI 251650Z 20011KT 9999 FEW030TCU SCT040 26/17 Q1006

Ora: 08:45 (06:45 UTC)


TAF: mancante

Osservazioni e previsioni meteorologiche di più di 4000 aeroporti (messaggi METAR e TAF).

Le stazioni disponibili sono rappresentate dai dischi gialli e rossi sulla carta.

Puntare il mouse per vedere il nome della stazione.

Clicca sopra per visualizzare le osservazioni e previsioni meteorologiche.

Per cambiare la mappa : fare clic sui pulsanti verdi con una croce nera per ingrandire, il pulsante verde con un trattino per diminuire, o sulla freccia verde per le mappe adiacenti.


METAR-TAF: